TimeEDT,TemperatureF,Dew PointF,Humidity,Sea Level PressureIn,VisibilityMPH,Wind Direction,Wind SpeedMPH,Gust SpeedMPH,PrecipitationIn,Events,Conditions,WindDirDegrees,DateUTC
12:15 AM,35.1,23.0,61,30.02,10.0,SW,4.6,-,N/A,,Clear,230,2014-03-10 04:15:00
12:35 AM,35.1,23.2,62,30.02,10.0,SW,3.5,-,N/A,,Clear,220,2014-03-10 04:35:00
12:55 AM,35.1,22.8,61,30.01,10.0,SSW,6.9,-,N/A,,Clear,210,2014-03-10 04:55:00
1:15 AM,34.7,23.5,64,30.00,10.0,SSW,6.9,-,N/A,,Clear,210,2014-03-10 05:15:00
1:35 AM,33.8,24.1,68,29.99,10.0,SW,9.2,-,N/A,,Clear,230,2014-03-10 05:35:00
1:55 AM,35.1,24.8,66,29.99,10.0,SW,6.9,-,N/A,,Clear,220,2014-03-10 05:55:00
2:15 AM,33.1,23.4,67,29.98,10.0,SW,6.9,-,N/A,,Clear,220,2014-03-10 06:15:00
2:35 AM,32.7,23.5,69,29.98,10.0,SW,6.9,-,N/A,,Clear,230,2014-03-10 06:35:00
2:55 AM,32.5,24.8,73,29.98,10.0,SW,4.6,-,N/A,,Clear,220,2014-03-10 06:55:00
3:15 AM,31.8,24.1,73,29.97,10.0,SW,6.9,-,N/A,,Clear,220,2014-03-10 07:15:00
3:35 AM,32.5,25.0,74,29.97,10.0,SW,5.8,-,N/A,,Clear,220,2014-03-10 07:35:00
3:55 AM,32.5,25.0,74,29.96,10.0,SW,8.1,-,N/A,,Clear,230,2014-03-10 07:55:00
4:15 AM,32.5,25.5,75,29.95,10.0,SW,6.9,-,N/A,,Clear,220,2014-03-10 08:15:00
4:35 AM,32.5,25.7,76,29.95,10.0,SW,6.9,-,N/A,,Clear,220,2014-03-10 08:35:00
4:55 AM,32.5,25.7,76,29.93,10.0,SW,6.9,-,N/A,,Clear,220,2014-03-10 08:55:00
5:15 AM,32.5,26.1,77,29.93,10.0,SW,8.1,-,N/A,,Clear,230,2014-03-10 09:15:00
5:35 AM,32.5,25.9,76,29.93,10.0,SW,8.1,-,N/A,,Clear,230,2014-03-10 09:35:00
5:55 AM,35.1,27.9,75,29.92,10.0,SW,9.2,-,N/A,,Clear,220,2014-03-10 09:55:00
6:15 AM,35.1,27.9,75,29.92,10.0,SW,8.1,-,N/A,,Clear,220,2014-03-10 10:15:00
6:35 AM,35.1,28.0,76,29.92,10.0,SW,8.1,-,N/A,,Clear,220,2014-03-10 10:35:00
6:55 AM,32.7,26.4,78,29.91,10.0,SW,6.9,-,N/A,,Clear,230,2014-03-10 10:55:00
7:15 AM,32.9,26.6,78,29.91,10.0,SW,6.9,-,N/A,,Clear,230,2014-03-10 11:15:00
7:35 AM,34.3,28.0,78,29.91,10.0,SW,8.1,-,N/A,,Clear,220,2014-03-10 11:35:00
7:55 AM,35.1,28.4,77,29.90,10.0,SW,8.1,-,N/A,,Clear,220,2014-03-10 11:55:00
8:15 AM,35.1,28.0,76,29.90,10.0,SW,9.2,-,N/A,,Clear,220,2014-03-10 12:15:00
8:35 AM,37.6,29.5,73,29.90,10.0,SW,10.4,-,N/A,,Clear,230,2014-03-10 12:35:00
8:55 AM,38.8,30.0,71,29.91,10.0,SW,10.4,-,N/A,,Clear,220,2014-03-10 12:55:00
9:15 AM,38.8,29.8,70,29.91,10.0,SW,11.5,-,N/A,,Clear,220,2014-03-10 13:15:00
9:35 AM,38.8,30.0,71,29.90,7.0,SW,10.4,-,N/A,,Clear,220,2014-03-10 13:35:00
10:00 AM,40.5,31.1,69,29.90,7.0,SW,11.5,-,N/A,,Clear,230,2014-03-10 14:00:00
10:15 AM,41.4,31.6,68,29.90,7.0,SW,11.5,-,N/A,,Clear,220,2014-03-10 14:15:00
10:35 AM,41.9,32.0,68,29.90,7.0,SW,11.5,-,N/A,,Clear,220,2014-03-10 14:35:00
10:55 AM,42.8,32.2,66,29.89,7.0,SSW,10.4,-,N/A,,Scattered Clouds,210,2014-03-10 14:55:00
11:15 AM,45.1,34.5,66,29.90,7.0,SSW,9.2,-,N/A,,Mostly Cloudy,210,2014-03-10 15:15:00
11:35 AM,46.0,34.9,65,29.89,7.0,SW,10.4,-,N/A,,Scattered Clouds,220,2014-03-10 15:35:00
11:55 AM,47.7,35.4,63,29.89,7.0,SW,13.8,-,N/A,,Clear,220,2014-03-10 15:55:00
12:15 PM,48.9,34.7,58,29.89,7.0,WSW,13.8,-,N/A,,Clear,240,2014-03-10 16:15:00
12:35 PM,52.5,37.0,56,29.87,10.0,SW,15.0,-,N/A,,Scattered Clouds,220,2014-03-10 16:35:00
12:55 PM,52.7,36.0,53,29.87,10.0,SW,15.0,20.7,N/A,,Mostly Cloudy,220,2014-03-10 16:55:00
1:15 PM,55.2,35.8,48,29.87,10.0,SW,13.8,20.7,N/A,,Overcast,230,2014-03-10 17:15:00
1:35 PM,55.4,33.4,43,29.85,10.0,WSW,15.0,-,N/A,,Mostly Cloudy,240,2014-03-10 17:35:00
1:55 PM,57.6,34.2,41,29.84,10.0,WSW,18.4,-,N/A,,Scattered Clouds,240,2014-03-10 17:55:00
2:15 PM,57.7,33.3,40,29.83,10.0,SW,17.3,25.3,N/A,,Clear,230,2014-03-10 18:15:00
2:40 PM,58.6,32.7,38,29.81,10.0,SW,16.1,21.9,N/A,,Clear,220,2014-03-10 18:40:00
2:55 PM,58.3,32.4,38,29.80,10.0,SW,16.1,21.9,N/A,,Clear,220,2014-03-10 18:55:00
3:15 PM,60.1,32.2,35,29.79,10.0,SW,19.6,-,N/A,,Clear,230,2014-03-10 19:15:00
3:35 PM,60.4,32.7,35,29.78,10.0,SSW,16.1,-,N/A,,Clear,210,2014-03-10 19:35:00
3:55 PM,60.1,32.9,36,29.77,10.0,SSW,20.7,24.2,N/A,,Clear,210,2014-03-10 19:55:00
4:15 PM,59.9,33.1,36,29.77,10.0,SSW,16.1,24.2,N/A,,Clear,210,2014-03-10 20:15:00
4:35 PM,60.1,32.9,36,29.77,10.0,SW,17.3,-,N/A,,Clear,220,2014-03-10 20:35:00
4:55 PM,60.1,32.0,35,29.76,10.0,SW,15.0,24.2,N/A,,Clear,220,2014-03-10 20:55:00
5:15 PM,60.1,32.4,35,29.75,10.0,SW,18.4,21.9,N/A,,Clear,220,2014-03-10 21:15:00
5:35 PM,60.4,31.5,34,29.74,10.0,SW,18.4,23.0,N/A,,Clear,220,2014-03-10 21:35:00
5:55 PM,60.3,31.6,34,29.74,10.0,SSW,11.5,21.9,N/A,,Clear,210,2014-03-10 21:55:00
6:15 PM,60.1,32.0,35,29.74,10.0,SW,17.3,23.0,N/A,,Clear,220,2014-03-10 22:15:00
6:35 PM,60.1,32.0,35,29.74,10.0,SW,12.7,-,N/A,,Clear,220,2014-03-10 22:35:00
6:55 PM,59.0,31.6,36,29.74,10.0,SW,11.5,-,N/A,,Clear,220,2014-03-10 22:55:00
7:20 PM,58.1,31.8,37,29.73,10.0,SW,11.5,-,N/A,,Clear,220,2014-03-10 23:20:00
7:35 PM,57.7,32.9,39,29.73,10.0,SW,9.2,-,N/A,,Clear,220,2014-03-10 23:35:00
7:55 PM,55.6,32.5,42,29.74,10.0,SW,8.1,-,N/A,,Clear,220,2014-03-10 23:55:00
8:15 PM,54.0,33.6,46,29.74,10.0,SW,6.9,-,N/A,,Clear,230,2014-03-11 00:15:00
8:35 PM,54.0,33.4,46,29.75,10.0,SW,4.6,-,N/A,,Clear,220,2014-03-11 00:35:00
8:55 PM,52.7,33.6,48,29.75,10.0,Calm,Calm,-,N/A,,Clear,0,2014-03-11 00:55:00
9:15 PM,52.5,34.5,50,29.76,10.0,Calm,Calm,-,N/A,,Clear,0,2014-03-11 01:15:00
9:35 PM,47.7,35.2,62,29.77,10.0,Calm,Calm,-,N/A,,Clear,0,2014-03-11 01:35:00
9:55 PM,47.7,35.6,63,29.77,10.0,Calm,Calm,-,N/A,,Clear,0,2014-03-11 01:55:00
10:15 PM,46.9,37.2,69,29.78,10.0,Calm,Calm,-,N/A,,Clear,0,2014-03-11 02:15:00
10:35 PM,44.1,35.1,71,29.78,10.0,Calm,Calm,-,N/A,,Clear,0,2014-03-11 02:35:00
10:55 PM,44.6,35.8,71,29.78,10.0,Calm,Calm,-,N/A,,Clear,0,2014-03-11 02:55:00
11:15 PM,41.4,34.0,75,29.78,10.0,Calm,Calm,-,N/A,,Clear,0,2014-03-11 03:15:00
11:35 PM,42.8,34.7,73,29.78,10.0,Calm,Calm,-,N/A,,Clear,0,2014-03-11 03:35:00